sensor_id;sensor_type;location;lat;lon;timestamp;temperature;humidity
66582;SHT31;53438;48.898;2.308;2022-08-19T03:00:30;19.63;70.52
66582;SHT31;53438;48.898;2.308;2022-08-19T03:02:56;19.68;70.37
66582;SHT31;53438;48.898;2.308;2022-08-19T03:05:21;19.78;70.46
66582;SHT31;53438;48.898;2.308;2022-08-19T03:07:46;19.79;70.36
66582;SHT31;53438;48.898;2.308;2022-08-19T03:10:12;19.88;70.10
66582;SHT31;53438;48.898;2.308;2022-08-19T03:12:38;20.14;69.60
66582;SHT31;53438;48.898;2.308;2022-08-19T03:15:07;20.22;69.27
66582;SHT31;53438;48.898;2.308;2022-08-19T03:17:34;20.19;69.53
66582;SHT31;53438;48.898;2.308;2022-08-19T03:19:59;20.37;69.23
66582;SHT31;53438;48.898;2.308;2022-08-19T03:22:25;20.33;69.58
66582;SHT31;53438;48.898;2.308;2022-08-19T03:24:50;20.09;70.09
66582;SHT31;53438;48.898;2.308;2022-08-19T03:27:16;20.08;69.94
66582;SHT31;53438;48.898;2.308;2022-08-19T03:29:42;20.22;69.97
66582;SHT31;53438;48.898;2.308;2022-08-19T03:32:07;20.18;69.82
66582;SHT31;53438;48.898;2.308;2022-08-19T03:34:34;19.78;70.93
66582;SHT31;53438;48.898;2.308;2022-08-19T03:37:08;20.11;70.25
66582;SHT31;53438;48.898;2.308;2022-08-19T03:39:36;19.82;70.96
66582;SHT31;53438;48.898;2.308;2022-08-19T03:42:02;19.73;71.08
66582;SHT31;53438;48.898;2.308;2022-08-19T03:44:28;19.56;71.62
66582;SHT31;53438;48.898;2.308;2022-08-19T03:46:56;19.79;71.02
66582;SHT31;53438;48.898;2.308;2022-08-19T03:49:23;19.99;70.59
66582;SHT31;53438;48.898;2.308;2022-08-19T03:51:49;19.84;70.83
66582;SHT31;53438;48.898;2.308;2022-08-19T03:54:18;19.88;70.70
66582;SHT31;53438;48.898;2.308;2022-08-19T03:56:45;19.95;70.92
66582;SHT31;53438;48.898;2.308;2022-08-19T03:59:15;19.84;71.09
66582;SHT31;53438;48.898;2.308;2022-08-19T04:01:41;20.08;70.41
66582;SHT31;53438;48.898;2.308;2022-08-19T04:04:06;19.88;70.69
66582;SHT31;53438;48.898;2.308;2022-08-19T04:06:34;19.66;71.56
66582;SHT31;53438;48.898;2.308;2022-08-19T04:09:03;19.70;71.27
66582;SHT31;53438;48.898;2.308;2022-08-19T04:11:32;19.77;70.94
66582;SHT31;53438;48.898;2.308;2022-08-19T04:13:59;19.89;70.35
66582;SHT31;53438;48.898;2.308;2022-08-19T04:16:26;20.14;70.05
66582;SHT31;53438;48.898;2.308;2022-08-19T04:18:56;19.95;70.15
66582;SHT31;53438;48.898;2.308;2022-08-19T04:21:24;20.02;70.38
66582;SHT31;53438;48.898;2.308;2022-08-19T04:23:50;20.19;69.84
66582;SHT31;53438;48.898;2.308;2022-08-19T04:26:17;19.66;70.73
66582;SHT31;53438;48.898;2.308;2022-08-19T04:28:44;19.97;70.29
66582;SHT31;53438;48.898;2.308;2022-08-19T04:31:21;20.19;69.56
66582;SHT31;53438;48.898;2.308;2022-08-19T04:33:47;20.36;69.18
66582;SHT31;53438;48.898;2.308;2022-08-19T04:36:21;19.87;69.98
66582;SHT31;53438;48.898;2.308;2022-08-19T04:38:48;20.04;69.74
66582;SHT31;53438;48.898;2.308;2022-08-19T04:41:13;20.01;69.56
66582;SHT31;53438;48.898;2.308;2022-08-19T04:44:17;20.18;69.49
66582;SHT31;53438;48.898;2.308;2022-08-19T04:46:47;19.84;70.63
66582;SHT31;53438;48.898;2.308;2022-08-19T04:49:14;20.08;70.16
66582;SHT31;53438;48.898;2.308;2022-08-19T04:51:42;20.16;69.90
66582;SHT31;53438;48.898;2.308;2022-08-19T04:54:08;20.12;70.05
66582;SHT31;53438;48.898;2.308;2022-08-19T04:56:33;20.12;69.87
66582;SHT31;53438;48.898;2.308;2022-08-19T04:58:59;20.26;69.88
66582;SHT31;53438;48.898;2.308;2022-08-19T05:01:30;20.12;69.72
66582;SHT31;53438;48.898;2.308;2022-08-19T05:03:57;20.24;69.87
66582;SHT31;53438;48.898;2.308;2022-08-19T05:06:23;20.30;69.49
66582;SHT31;53438;48.898;2.308;2022-08-19T05:08:50;20.07;69.73
66582;SHT31;53438;48.898;2.308;2022-08-19T05:11:23;20.01;69.83
66582;SHT31;53438;48.898;2.308;2022-08-19T05:13:49;20.15;69.64
66582;SHT31;53438;48.898;2.308;2022-08-19T05:16:18;20.18;69.64
66582;SHT31;53438;48.898;2.308;2022-08-19T05:18:45;20.49;68.93
66582;SHT31;53438;48.898;2.308;2022-08-19T05:21:30;20.39;69.35
66582;SHT31;53438;48.898;2.308;2022-08-19T05:24:15;20.30;69.13
66582;SHT31;53438;48.898;2.308;2022-08-19T05:26:43;20.37;69.34
66582;SHT31;53438;48.898;2.308;2022-08-19T05:29:12;20.29;69.41
66582;SHT31;53438;48.898;2.308;2022-08-19T05:31:38;20.37;69.17
66582;SHT31;53438;48.898;2.308;2022-08-19T05:34:04;20.35;69.13
66582;SHT31;53438;48.898;2.308;2022-08-19T05:36:35;19.91;70.59
66582;SHT31;53438;48.898;2.308;2022-08-19T05:39:03;19.78;70.80
66582;SHT31;53438;48.898;2.308;2022-08-19T05:41:29;19.95;70.33
66582;SHT31;53438;48.898;2.308;2022-08-19T05:44:01;20.01;70.51
66582;SHT31;53438;48.898;2.308;2022-08-19T05:46:29;19.95;70.89
66582;SHT31;53438;48.898;2.308;2022-08-19T05:48:55;19.67;71.90
66582;SHT31;53438;48.898;2.308;2022-08-19T05:51:22;19.87;71.66
66582;SHT31;53438;48.898;2.308;2022-08-19T05:53:48;20.29;71.10
66582;SHT31;53438;48.898;2.308;2022-08-19T05:56:15;20.04;71.47
66582;SHT31;53438;48.898;2.308;2022-08-19T05:58:42;20.12;71.21
66582;SHT31;53438;48.898;2.308;2022-08-19T06:01:12;19.91;72.04
66582;SHT31;53438;48.898;2.308;2022-08-19T06:03:38;20.14;71.00
66582;SHT31;53438;48.898;2.308;2022-08-19T06:06:05;20.28;70.75
66582;SHT31;53438;48.898;2.308;2022-08-19T06:08:31;20.11;70.64
66582;SHT31;53438;48.898;2.308;2022-08-19T06:10:56;20.36;70.53
66582;SHT31;53438;48.898;2.308;2022-08-19T06:13:22;19.73;71.98
66582;SHT31;53438;48.898;2.308;2022-08-19T06:15:50;19.71;72.29
66582;SHT31;53438;48.898;2.308;2022-08-19T06:18:15;19.66;72.43
66582;SHT31;53438;48.898;2.308;2022-08-19T06:20:41;19.78;72.31
66582;SHT31;53438;48.898;2.308;2022-08-19T06:23:07;19.94;72.17
66582;SHT31;53438;48.898;2.308;2022-08-19T06:25:34;19.88;72.14
66582;SHT31;53438;48.898;2.308;2022-08-19T06:28:00;20.08;71.69
66582;SHT31;53438;48.898;2.308;2022-08-19T06:30:26;20.04;71.90
66582;SHT31;53438;48.898;2.308;2022-08-19T06:32:52;20.02;71.56
66582;SHT31;53438;48.898;2.308;2022-08-19T06:35:18;19.70;72.90
66582;SHT31;53438;48.898;2.308;2022-08-19T06:37:43;19.84;72.53
66582;SHT31;53438;48.898;2.308;2022-08-19T06:40:10;19.94;72.41
66582;SHT31;53438;48.898;2.308;2022-08-19T06:42:36;19.67;72.41
66582;SHT31;53438;48.898;2.308;2022-08-19T06:45:04;19.60;73.02
66582;SHT31;53438;48.898;2.308;2022-08-19T06:47:30;19.71;72.68
66582;SHT31;53438;48.898;2.308;2022-08-19T06:49:57;19.95;72.30
66582;SHT31;53438;48.898;2.308;2022-08-19T06:52:28;19.81;72.23
66582;SHT31;53438;48.898;2.308;2022-08-19T06:54:54;20.08;71.75
66582;SHT31;53438;48.898;2.308;2022-08-19T06:57:20;20.12;71.79
66582;SHT31;53438;48.898;2.308;2022-08-19T06:59:46;20.30;71.30
66582;SHT31;53438;48.898;2.308;2022-08-19T07:02:12;20.55;70.78
66582;SHT31;53438;48.898;2.308;2022-08-19T07:04:37;20.67;70.42
66582;SHT31;53438;48.898;2.308;2022-08-19T07:07:09;20.24;71.44
66582;SHT31;53438;48.898;2.308;2022-08-19T07:09:40;19.92;72.20
66582;SHT31;53438;48.898;2.308;2022-08-19T07:12:08;19.81;72.70
66582;SHT31;53438;48.898;2.308;2022-08-19T07:14:34;19.95;72.31
66582;SHT31;53438;48.898;2.308;2022-08-19T07:17:03;20.08;71.66
66582;SHT31;53438;48.898;2.308;2022-08-19T07:19:29;19.64;73.07
66582;SHT31;53438;48.898;2.308;2022-08-19T07:21:55;20.02;72.47
66582;SHT31;53438;48.898;2.308;2022-08-19T07:24:23;20.21;71.79
66582;SHT31;53438;48.898;2.308;2022-08-19T07:26:50;20.21;71.94
66582;SHT31;53438;48.898;2.308;2022-08-19T07:29:16;20.14;71.91
66582;SHT31;53438;48.898;2.308;2022-08-19T07:31:42;20.40;71.38
66582;SHT31;53438;48.898;2.308;2022-08-19T07:34:09;19.92;72.52
66582;SHT31;53438;48.898;2.308;2022-08-19T07:36:38;20.26;72.01
66582;SHT31;53438;48.898;2.308;2022-08-19T07:39:08;20.30;71.55
66582;SHT31;53438;48.898;2.308;2022-08-19T07:41:34;20.53;71.22
66582;SHT31;53438;48.898;2.308;2022-08-19T07:44:01;20.42;71.23
66582;SHT31;53438;48.898;2.308;2022-08-19T07:46:32;20.40;71.66
66582;SHT31;53438;48.898;2.308;2022-08-19T07:48:58;20.39;71.29
66582;SHT31;53438;48.898;2.308;2022-08-19T07:51:24;20.33;71.65
66582;SHT31;53438;48.898;2.308;2022-08-19T07:53:49;20.15;72.05
66582;SHT31;53438;48.898;2.308;2022-08-19T07:56:17;20.19;72.12
66582;SHT31;53438;48.898;2.308;2022-08-19T07:58:45;20.12;72.45
66582;SHT31;53438;48.898;2.308;2022-08-19T08:01:15;20.08;72.31
66582;SHT31;53438;48.898;2.308;2022-08-19T08:03:42;20.25;72.09
66582;SHT31;53438;48.898;2.308;2022-08-19T08:06:26;20.49;71.70
66582;SHT31;53438;48.898;2.308;2022-08-19T08:09:11;20.57;71.07
66582;SHT31;53438;48.898;2.308;2022-08-19T08:11:42;20.45;71.34
66582;SHT31;53438;48.898;2.308;2022-08-19T08:14:08;20.47;71.37
66582;SHT31;53438;48.898;2.308;2022-08-19T08:16:36;20.50;71.21
66582;SHT31;53438;48.898;2.308;2022-08-19T08:19:04;20.70;70.52
66582;SHT31;53438;48.898;2.308;2022-08-19T08:21:30;20.70;70.56
66582;SHT31;53438;48.898;2.308;2022-08-19T08:23:55;20.59;70.79
66582;SHT31;53438;48.898;2.308;2022-08-19T08:26:21;20.76;70.49
66582;SHT31;53438;48.898;2.308;2022-08-19T08:28:47;20.90;70.35
66582;SHT31;53438;48.898;2.308;2022-08-19T08:31:13;21.11;69.85
66582;SHT31;53438;48.898;2.308;2022-08-19T08:33:39;21.08;69.61
66582;SHT31;53438;48.898;2.308;2022-08-19T08:36:07;21.17;69.29
66582;SHT31;53438;48.898;2.308;2022-08-19T08:38:34;21.14;69.37
66582;SHT31;53438;48.898;2.308;2022-08-19T08:41:50;21.28;69.33
66582;SHT31;53438;48.898;2.308;2022-08-19T08:43:55;21.27;68.78
66582;SHT31;53438;48.898;2.308;2022-08-19T08:51:44;21.39;69.44
66582;SHT31;53438;48.898;2.308;2022-08-19T08:54:14;21.28;69.12
66582;SHT31;53438;48.898;2.308;2022-08-19T08:56:43;21.42;69.83
66582;SHT31;53438;48.898;2.308;2022-08-19T09:01:42;21.44;69.46
66582;SHT31;53438;48.898;2.308;2022-08-19T09:04:11;21.52;69.36
66582;SHT31;53438;48.898;2.308;2022-08-19T09:09:32;21.62;69.16
66582;SHT31;53438;48.898;2.308;2022-08-19T09:17:14;21.65;68.64
66582;SHT31;53438;48.898;2.308;2022-08-19T09:20:00;21.72;68.72
66582;SHT31;53438;48.898;2.308;2022-08-19T09:22:31;21.78;68.66
66582;SHT31;53438;48.898;2.308;2022-08-19T09:24:59;21.90;68.04
66582;SHT31;53438;48.898;2.308;2022-08-19T09:27:25;22.20;67.43
66582;SHT31;53438;48.898;2.308;2022-08-19T09:29:52;22.14;67.45
66582;SHT31;53438;48.898;2.308;2022-08-19T09:32:19;21.61;67.76
66582;SHT31;53438;48.898;2.308;2022-08-19T09:34:44;21.82;67.67
66582;SHT31;53438;48.898;2.308;2022-08-19T09:37:12;21.89;67.78
66582;SHT31;53438;48.898;2.308;2022-08-19T09:39:39;22.07;67.42
66582;SHT31;53438;48.898;2.308;2022-08-19T09:42:06;22.18;66.98
66582;SHT31;53438;48.898;2.308;2022-08-19T09:44:37;22.50;66.71
66582;SHT31;53438;48.898;2.308;2022-08-19T09:47:02;22.50;66.12
66582;SHT31;53438;48.898;2.308;2022-08-19T09:49:29;22.58;66.15
66582;SHT31;53438;48.898;2.308;2022-08-19T09:51:54;22.65;65.57
66582;SHT31;53438;48.898;2.308;2022-08-19T09:54:21;22.34;66.06
66582;SHT31;53438;48.898;2.308;2022-08-19T09:56:46;22.36;66.31
66582;SHT31;53438;48.898;2.308;2022-08-19T09:59:12;22.44;66.58
66582;SHT31;53438;48.898;2.308;2022-08-19T10:01:37;22.57;65.79
66582;SHT31;53438;48.898;2.308;2022-08-19T10:04:03;22.65;65.84
66582;SHT31;53438;48.898;2.308;2022-08-19T10:06:33;22.33;66.39
66582;SHT31;53438;48.898;2.308;2022-08-19T10:09:00;22.41;66.72
66582;SHT31;53438;48.898;2.308;2022-08-19T10:11:27;22.54;66.23
66582;SHT31;53438;48.898;2.308;2022-08-19T10:13:54;22.41;66.10
66582;SHT31;53438;48.898;2.308;2022-08-19T10:16:21;22.41;66.27
66582;SHT31;53438;48.898;2.308;2022-08-19T10:18:48;22.48;66.23
66582;SHT31;53438;48.898;2.308;2022-08-19T10:21:16;22.39;66.09
66582;SHT31;53438;48.898;2.308;2022-08-19T10:23:45;22.50;66.18
66582;SHT31;53438;48.898;2.308;2022-08-19T10:26:13;22.61;66.03
66582;SHT31;53438;48.898;2.308;2022-08-19T10:28:39;22.75;65.88
66582;SHT31;53438;48.898;2.308;2022-08-19T10:31:10;22.47;66.03
66582;SHT31;53438;48.898;2.308;2022-08-19T10:33:37;22.57;65.92
66582;SHT31;53438;48.898;2.308;2022-08-19T10:36:08;22.75;65.71
66582;SHT31;53438;48.898;2.308;2022-08-19T10:38:35;23.06;64.95
66582;SHT31;53438;48.898;2.308;2022-08-19T10:41:08;22.99;65.41
66582;SHT31;53438;48.898;2.308;2022-08-19T10:43:34;23.18;64.72
66582;SHT31;53438;48.898;2.308;2022-08-19T10:46:04;23.18;64.57
66582;SHT31;53438;48.898;2.308;2022-08-19T10:48:30;23.11;64.68
66582;SHT31;53438;48.898;2.308;2022-08-19T10:50:57;23.20;65.00
66582;SHT31;53438;48.898;2.308;2022-08-19T10:53:41;23.06;64.66
66582;SHT31;53438;48.898;2.308;2022-08-19T10:56:06;23.18;64.79
66582;SHT31;53438;48.898;2.308;2022-08-19T10:58:50;23.22;64.56
66582;SHT31;53438;48.898;2.308;2022-08-19T11:01:15;23.27;64.48
66582;SHT31;53438;48.898;2.308;2022-08-19T11:03:41;23.16;64.70
66582;SHT31;53438;48.898;2.308;2022-08-19T11:06:08;23.20;64.76
66582;SHT31;53438;48.898;2.308;2022-08-19T11:08:35;23.22;64.64
66582;SHT31;53438;48.898;2.308;2022-08-19T11:11:02;23.20;64.90
66582;SHT31;53438;48.898;2.308;2022-08-19T11:13:30;23.24;64.91
66582;SHT31;53438;48.898;2.308;2022-08-19T11:16:04;23.15;65.33
66582;SHT31;53438;48.898;2.308;2022-08-19T11:18:32;23.13;65.22
66582;SHT31;53438;48.898;2.308;2022-08-19T11:23:51;23.15;65.04
66582;SHT31;53438;48.898;2.308;2022-08-19T11:26:18;23.13;65.04
66582;SHT31;53438;48.898;2.308;2022-08-19T11:28:43;23.13;65.27
66582;SHT31;53438;48.898;2.308;2022-08-19T11:31:13;23.19;65.59
66582;SHT31;53438;48.898;2.308;2022-08-19T11:33:39;23.18;64.74
66582;SHT31;53438;48.898;2.308;2022-08-19T11:36:05;23.18;65.12
66582;SHT31;53438;48.898;2.308;2022-08-19T11:38:30;23.23;65.24
66582;SHT31;53438;48.898;2.308;2022-08-19T11:40:58;23.18;65.01
66582;SHT31;53438;48.898;2.308;2022-08-19T11:43:24;23.26;65.01
66582;SHT31;53438;48.898;2.308;2022-08-19T11:45:51;23.19;65.04
66582;SHT31;53438;48.898;2.308;2022-08-19T11:48:17;23.09;65.80
66582;SHT31;53438;48.898;2.308;2022-08-19T11:50:47;23.24;65.04
66582;SHT31;53438;48.898;2.308;2022-08-19T11:53:12;23.26;64.52
66582;SHT31;53438;48.898;2.308;2022-08-19T11:55:38;23.26;64.75
66582;SHT31;53438;48.898;2.308;2022-08-19T11:58:08;23.18;65.01
66582;SHT31;53438;48.898;2.308;2022-08-19T12:00:34;23.19;65.25
66582;SHT31;53438;48.898;2.308;2022-08-19T12:03:01;23.15;65.78
66582;SHT31;53438;48.898;2.308;2022-08-19T12:05:27;23.20;66.40
66582;SHT31;53438;48.898;2.308;2022-08-19T12:07:52;23.22;66.37
66582;SHT31;53438;48.898;2.308;2022-08-19T12:10:19;23.34;65.16
66582;SHT31;53438;48.898;2.308;2022-08-19T12:12:45;23.26;65.50
66582;SHT31;53438;48.898;2.308;2022-08-19T12:15:11;23.26;65.77
66582;SHT31;53438;48.898;2.308;2022-08-19T12:17:37;23.19;65.99
66582;SHT31;53438;48.898;2.308;2022-08-19T12:20:04;23.16;66.65
66582;SHT31;53438;48.898;2.308;2022-08-19T12:22:29;23.09;66.92
66582;SHT31;53438;48.898;2.308;2022-08-19T12:24:55;23.12;67.10
66582;SHT31;53438;48.898;2.308;2022-08-19T12:27:20;23.11;66.91
66582;SHT31;53438;48.898;2.308;2022-08-19T12:29:46;23.06;67.20
66582;SHT31;53438;48.898;2.308;2022-08-19T12:32:11;23.13;66.46
66582;SHT31;53438;48.898;2.308;2022-08-19T12:34:36;23.15;66.86
66582;SHT31;53438;48.898;2.308;2022-08-19T12:37:05;23.15;66.42
66582;SHT31;53438;48.898;2.308;2022-08-19T12:39:41;23.09;66.74
66582;SHT31;53438;48.898;2.308;2022-08-19T12:42:08;23.02;66.23
66582;SHT31;53438;48.898;2.308;2022-08-19T12:44:35;22.85;66.78
66582;SHT31;53438;48.898;2.308;2022-08-19T12:47:01;22.79;67.01
66582;SHT31;53438;48.898;2.308;2022-08-19T12:49:28;22.92;66.41
66582;SHT31;53438;48.898;2.308;2022-08-19T12:51:54;22.99;66.38
66582;SHT31;53438;48.898;2.308;2022-08-19T12:54:19;23.08;66.20
66582;SHT31;53438;48.898;2.308;2022-08-19T12:56:45;23.11;65.65
66582;SHT31;53438;48.898;2.308;2022-08-19T12:59:10;23.19;65.40
66582;SHT31;53438;48.898;2.308;2022-08-19T13:01:36;23.26;65.49
66582;SHT31;53438;48.898;2.308;2022-08-19T13:04:01;23.26;65.50
66582;SHT31;53438;48.898;2.308;2022-08-19T13:06:27;23.36;65.46
66582;SHT31;53438;48.898;2.308;2022-08-19T13:08:54;23.34;65.34
66582;SHT31;53438;48.898;2.308;2022-08-19T13:11:20;23.39;65.25
66582;SHT31;53438;48.898;2.308;2022-08-19T13:13:48;23.47;64.53
66582;SHT31;53438;48.898;2.308;2022-08-19T13:16:15;23.59;64.42
66582;SHT31;53438;48.898;2.308;2022-08-19T13:18:41;23.64;64.49
66582;SHT31;53438;48.898;2.308;2022-08-19T13:21:09;23.70;64.41
66582;SHT31;53438;48.898;2.308;2022-08-19T13:23:38;23.74;63.97
66582;SHT31;53438;48.898;2.308;2022-08-19T13:26:05;23.77;63.47
66582;SHT31;53438;48.898;2.308;2022-08-19T13:28:32;23.84;63.30
66582;SHT31;53438;48.898;2.308;2022-08-19T13:31:17;23.93;63.05
66582;SHT31;53438;48.898;2.308;2022-08-19T13:34:01;23.96;63.42
66582;SHT31;53438;48.898;2.308;2022-08-19T13:36:27;24.04;62.55
66582;SHT31;53438;48.898;2.308;2022-08-19T13:38:52;23.94;62.51
66582;SHT31;53438;48.898;2.308;2022-08-19T13:41:17;24.02;62.31
66582;SHT31;53438;48.898;2.308;2022-08-19T13:43:44;24.07;62.85
66582;SHT31;53438;48.898;2.308;2022-08-19T13:46:10;24.15;62.51
66582;SHT31;53438;48.898;2.308;2022-08-19T13:48:39;24.32;61.88
66582;SHT31;53438;48.898;2.308;2022-08-19T13:51:07;24.32;62.35
66582;SHT31;53438;48.898;2.308;2022-08-19T13:53:35;24.33;61.10
66582;SHT31;53438;48.898;2.308;2022-08-19T13:56:05;24.33;60.91
66582;SHT31;53438;48.898;2.308;2022-08-19T13:58:31;24.43;60.90
66582;SHT31;53438;48.898;2.308;2022-08-19T14:00:57;24.49;60.65
66582;SHT31;53438;48.898;2.308;2022-08-19T14:03:24;24.53;60.23
66582;SHT31;53438;48.898;2.308;2022-08-19T14:05:50;24.41;60.10
66582;SHT31;53438;48.898;2.308;2022-08-19T14:08:15;24.21;60.50
66582;SHT31;53438;48.898;2.308;2022-08-19T14:10:41;24.41;60.98
66582;SHT31;53438;48.898;2.308;2022-08-19T14:13:09;24.48;60.88
66582;SHT31;53438;48.898;2.308;2022-08-19T14:15:35;24.53;60.78
66582;SHT31;53438;48.898;2.308;2022-08-19T14:18:03;24.47;60.46
66582;SHT31;53438;48.898;2.308;2022-08-19T14:20:29;24.52;60.35
66582;SHT31;53438;48.898;2.308;2022-08-19T14:22:54;24.52;60.27
66582;SHT31;53438;48.898;2.308;2022-08-19T14:25:26;24.58;60.24
66582;SHT31;53438;48.898;2.308;2022-08-19T14:27:52;24.61;60.22
66582;SHT31;53438;48.898;2.308;2022-08-19T14:30:21;24.69;60.20
66582;SHT31;53438;48.898;2.308;2022-08-19T14:32:47;24.76;59.98
66582;SHT31;53438;48.898;2.308;2022-08-19T14:35:13;24.73;59.95
66582;SHT31;53438;48.898;2.308;2022-08-19T14:37:41;24.66;60.19
66582;SHT31;53438;48.898;2.308;2022-08-19T14:40:07;24.70;59.83
66582;SHT31;53438;48.898;2.308;2022-08-19T14:42:33;24.73;60.16
66582;SHT31;53438;48.898;2.308;2022-08-19T14:44:59;24.68;60.04
66582;SHT31;53438;48.898;2.308;2022-08-19T14:47:25;24.66;60.40
66582;SHT31;53438;48.898;2.308;2022-08-19T14:49:52;24.69;60.46
66582;SHT31;53438;48.898;2.308;2022-08-19T14:52:17;24.69;60.49
66582;SHT31;53438;48.898;2.308;2022-08-19T14:54:43;24.69;60.93
66582;SHT31;53438;48.898;2.308;2022-08-19T14:57:11;24.56;60.87
66582;SHT31;53438;48.898;2.308;2022-08-19T14:59:37;24.39;61.39
66582;SHT31;53438;48.898;2.308;2022-08-19T15:02:02;24.41;61.27
66582;SHT31;53438;48.898;2.308;2022-08-19T15:04:28;24.41;61.36
66582;SHT31;53438;48.898;2.308;2022-08-19T15:06:53;24.36;61.21
66582;SHT31;53438;48.898;2.308;2022-08-19T15:09:18;24.26;61.50
66582;SHT31;53438;48.898;2.308;2022-08-19T15:11:44;24.22;61.57
66582;SHT31;53438;48.898;2.308;2022-08-19T15:14:11;24.20;61.74
66582;SHT31;53438;48.898;2.308;2022-08-19T15:16:36;24.24;61.70
66582;SHT31;53438;48.898;2.308;2022-08-19T15:19:04;24.28;61.68
66582;SHT31;53438;48.898;2.308;2022-08-19T15:21:30;24.33;61.63
66582;SHT31;53438;48.898;2.308;2022-08-19T15:23:56;24.36;61.51
66582;SHT31;53438;48.898;2.308;2022-08-19T15:26:22;24.26;61.91
66582;SHT31;53438;48.898;2.308;2022-08-19T15:28:47;24.38;61.92
66582;SHT31;53438;48.898;2.308;2022-08-19T15:31:17;24.33;62.08
66582;SHT31;53438;48.898;2.308;2022-08-19T15:33:44;24.36;62.40
66582;SHT31;53438;48.898;2.308;2022-08-19T15:36:11;24.36;62.42
66582;SHT31;53438;48.898;2.308;2022-08-19T15:38:38;24.39;62.33
66582;SHT31;53438;48.898;2.308;2022-08-19T15:41:05;24.36;62.55
66582;SHT31;53438;48.898;2.308;2022-08-19T15:44:04;24.33;62.79
66582;SHT31;53438;48.898;2.308;2022-08-19T15:46:33;24.32;62.86
66582;SHT31;53438;48.898;2.308;2022-08-19T15:49:00;24.25;63.00
66582;SHT31;53438;48.898;2.308;2022-08-19T15:51:29;24.17;63.19
66582;SHT31;53438;48.898;2.308;2022-08-19T15:53:55;24.14;63.21
66582;SHT31;53438;48.898;2.308;2022-08-19T15:56:21;24.14;63.40
66582;SHT31;53438;48.898;2.308;2022-08-19T15:58:46;24.21;63.19
66582;SHT31;53438;48.898;2.308;2022-08-19T16:01:30;24.17;63.10
66582;SHT31;53438;48.898;2.308;2022-08-19T16:04:15;24.18;63.15
66582;SHT31;53438;48.898;2.308;2022-08-19T16:07:00;24.21;63.06
66582;SHT31;53438;48.898;2.308;2022-08-19T16:09:29;24.24;63.09
66582;SHT31;53438;48.898;2.308;2022-08-19T16:11:59;24.24;62.90
66582;SHT31;53438;48.898;2.308;2022-08-19T16:14:30;24.25;62.54
66582;SHT31;53438;48.898;2.308;2022-08-19T16:16:56;24.32;62.59
66582;SHT31;53438;48.898;2.308;2022-08-19T16:19:22;24.29;62.38
66582;SHT31;53438;48.898;2.308;2022-08-19T16:21:50;24.22;62.44
66582;SHT31;53438;48.898;2.308;2022-08-19T16:24:18;24.22;62.59
66582;SHT31;53438;48.898;2.308;2022-08-19T16:26:44;24.26;62.37
66582;SHT31;53438;48.898;2.308;2022-08-19T16:29:10;24.33;62.35
66582;SHT31;53438;48.898;2.308;2022-08-19T16:31:36;24.42;62.05
66582;SHT31;53438;48.898;2.308;2022-08-19T16:34:03;24.33;62.12
66582;SHT31;53438;48.898;2.308;2022-08-19T16:36:29;24.43;61.72
66582;SHT31;53438;48.898;2.308;2022-08-19T16:38:55;24.39;61.83
66582;SHT31;53438;48.898;2.308;2022-08-19T16:41:22;24.43;62.26
66582;SHT31;53438;48.898;2.308;2022-08-19T16:43:48;24.35;61.38
66582;SHT31;53438;48.898;2.308;2022-08-19T16:46:17;24.32;61.23
66582;SHT31;53438;48.898;2.308;2022-08-19T16:48:43;24.35;61.05
66582;SHT31;53438;48.898;2.308;2022-08-19T16:51:11;24.33;60.95
66582;SHT31;53438;48.898;2.308;2022-08-19T16:53:38;24.31;61.04
66582;SHT31;53438;48.898;2.308;2022-08-19T16:56:04;24.33;60.98
66582;SHT31;53438;48.898;2.308;2022-08-19T16:58:31;24.31;61.14
66582;SHT31;53438;48.898;2.308;2022-08-19T17:01:00;24.22;61.36
66582;SHT31;53438;48.898;2.308;2022-08-19T17:03:26;24.28;61.35
66582;SHT31;53438;48.898;2.308;2022-08-19T17:05:54;24.28;61.74
66582;SHT31;53438;48.898;2.308;2022-08-19T17:08:21;24.25;61.52
66582;SHT31;53438;48.898;2.308;2022-08-19T17:10:51;24.31;61.36
66582;SHT31;53438;48.898;2.308;2022-08-19T17:13:19;24.33;61.78
66582;SHT31;53438;48.898;2.308;2022-08-19T17:15:44;24.38;61.39
66582;SHT31;53438;48.898;2.308;2022-08-19T17:18:10;24.33;61.51
66582;SHT31;53438;48.898;2.308;2022-08-19T17:20:36;24.41;61.46
66582;SHT31;53438;48.898;2.308;2022-08-19T17:23:03;24.26;61.67
66582;SHT31;53438;48.898;2.308;2022-08-19T17:25:30;24.26;61.87
66582;SHT31;53438;48.898;2.308;2022-08-19T17:27:57;24.28;62.00
66582;SHT31;53438;48.898;2.308;2022-08-19T17:30:23;24.29;61.92
66582;SHT31;53438;48.898;2.308;2022-08-19T17:32:50;24.38;61.79
66582;SHT31;53438;48.898;2.308;2022-08-19T17:35:16;24.33;62.62
66582;SHT31;53438;48.898;2.308;2022-08-19T17:37:48;24.36;63.12
66582;SHT31;53438;48.898;2.308;2022-08-19T17:40:16;24.33;62.91
66582;SHT31;53438;48.898;2.308;2022-08-19T17:42:42;24.36;62.14
66582;SHT31;53438;48.898;2.308;2022-08-19T17:45:08;24.31;62.13
66582;SHT31;53438;48.898;2.308;2022-08-19T17:47:36;24.32;62.77
66582;SHT31;53438;48.898;2.308;2022-08-19T17:50:07;24.36;62.73
66582;SHT31;53438;48.898;2.308;2022-08-19T17:52:33;24.32;63.77
66582;SHT31;53438;48.898;2.308;2022-08-19T17:54:58;24.24;63.47
66582;SHT31;53438;48.898;2.308;2022-08-19T17:57:24;24.10;64.25
66582;SHT31;53438;48.898;2.308;2022-08-19T17:59:50;23.85;65.86
66582;SHT31;53438;48.898;2.308;2022-08-19T18:02:15;23.74;67.40
66582;SHT31;53438;48.898;2.308;2022-08-19T18:04:41;23.59;68.15
66582;SHT31;53438;48.898;2.308;2022-08-19T18:07:07;23.38;68.02
66582;SHT31;53438;48.898;2.308;2022-08-19T18:09:36;23.54;68.74
66582;SHT31;53438;48.898;2.308;2022-08-19T18:12:02;23.42;69.08
66582;SHT31;53438;48.898;2.308;2022-08-19T18:14:32;23.15;70.09
66582;SHT31;53438;48.898;2.308;2022-08-19T18:17:02;22.92;71.41
66582;SHT31;53438;48.898;2.308;2022-08-19T18:19:30;22.91;71.49
66582;SHT31;53438;48.898;2.308;2022-08-19T18:21:55;22.58;71.83
66582;SHT31;53438;48.898;2.308;2022-08-19T18:24:20;22.41;72.27
66582;SHT31;53438;48.898;2.308;2022-08-19T18:26:46;22.36;73.24
66582;SHT31;53438;48.898;2.308;2022-08-19T18:29:13;22.24;72.79
66582;SHT31;53438;48.898;2.308;2022-08-19T18:31:38;22.36;72.94
66582;SHT31;53438;48.898;2.308;2022-08-19T18:34:04;22.21;73.27
66582;SHT31;53438;48.898;2.308;2022-08-19T18:36:30;22.24;73.88
66582;SHT31;53438;48.898;2.308;2022-08-19T18:38:57;22.20;73.81
66582;SHT31;53438;48.898;2.308;2022-08-19T18:41:41;22.27;73.87
66582;SHT31;53438;48.898;2.308;2022-08-19T18:44:25;21.89;74.00
66582;SHT31;53438;48.898;2.308;2022-08-19T18:47:09;22.04;74.21
66582;SHT31;53438;48.898;2.308;2022-08-19T18:49:53;21.97;74.19
66582;SHT31;53438;48.898;2.308;2022-08-19T18:52:18;21.96;74.62